createdAt,value
2022-12-27T00:00:42.902Z,24.50
2022-12-27T00:03:32.327Z,27.17
2022-12-27T00:06:24.507Z,25.53
2022-12-27T00:09:13.538Z,27.03
2022-12-27T00:12:02.256Z,27.08
2022-12-27T00:14:51.422Z,25.80
2022-12-27T00:17:40.996Z,27.33
2022-12-27T00:20:30.773Z,27.90
2022-12-27T00:23:21.392Z,26.57
2022-12-27T00:26:13.492Z,28.83
2022-12-27T00:29:03.261Z,28.17
2022-12-27T00:31:52.603Z,29.97
2022-12-27T00:34:42.996Z,29.07
2022-12-27T00:37:32.296Z,27.93
2022-12-27T00:40:22.804Z,27.43
2022-12-27T00:43:11.649Z,30.27
2022-12-27T00:46:02.067Z,28.73
2022-12-27T00:48:51.008Z,29.07
2022-12-27T00:51:40.082Z,27.00
2022-12-27T00:54:29.491Z,31.10
2022-12-27T00:57:20.535Z,29.30
2022-12-27T01:00:10.976Z,30.83
2022-12-27T01:03:00.212Z,28.00
2022-12-27T01:05:49.777Z,28.40
2022-12-27T01:08:38.607Z,30.53
2022-12-27T01:11:29.069Z,28.97
2022-12-27T01:14:19.590Z,29.23
2022-12-27T01:17:08.672Z,28.47
2022-12-27T01:19:58.156Z,29.73
2022-12-27T01:22:46.886Z,30.33
2022-12-27T01:25:35.643Z,28.83
2022-12-27T01:28:24.831Z,30.53
2022-12-27T01:31:18.531Z,30.00
2022-12-27T01:34:07.691Z,32.47
2022-12-27T01:36:56.656Z,32.43
2022-12-27T01:39:46.320Z,30.97
2022-12-27T01:42:52.703Z,32.07
2022-12-27T01:45:42.001Z,29.17
2022-12-27T01:48:32.779Z,32.27
2022-12-27T01:51:22.107Z,31.50
2022-12-27T01:54:11.357Z,28.60
2022-12-27T01:57:01.253Z,29.00
2022-12-27T01:59:51.289Z,27.73
2022-12-27T02:02:41.693Z,27.17
2022-12-27T02:05:33.130Z,27.97
2022-12-27T02:08:38.046Z,29.53
2022-12-27T02:11:44.049Z,28.67
2022-12-27T02:14:36.035Z,28.33
2022-12-27T02:17:28.278Z,27.80
2022-12-27T02:20:19.500Z,27.47
2022-12-27T02:23:53.026Z,28.57
2022-12-27T02:26:55.299Z,26.17
2022-12-27T02:30:01.210Z,27.23
2022-12-27T02:32:57.761Z,26.47
2022-12-27T02:35:52.480Z,26.30
2022-12-27T02:38:44.453Z,24.37
2022-12-27T02:41:52.158Z,25.13
2022-12-27T02:44:58.419Z,26.27
2022-12-27T02:48:07.317Z,26.10
2022-12-27T02:51:31.193Z,25.80
2022-12-27T02:54:49.558Z,26.43
2022-12-27T02:57:43.992Z,26.00
2022-12-27T03:01:00.361Z,25.43
2022-12-27T03:04:06.376Z,25.00
2022-12-27T03:07:07.280Z,23.87
2022-12-27T03:10:30.873Z,22.87
2022-12-27T03:13:43.371Z,23.17
2022-12-27T03:16:41.540Z,23.83
2022-12-27T03:19:57.328Z,23.17
2022-12-27T03:23:05.797Z,22.77
2022-12-27T03:25:57.321Z,22.50
2022-12-27T03:29:13.794Z,22.77
2022-12-27T03:32:22.715Z,20.93
2022-12-27T03:35:17.530Z,20.43
2022-12-27T03:38:07.450Z,22.43
2022-12-27T03:41:20.347Z,20.30
2022-12-27T03:44:24.317Z,20.73
2022-12-27T03:47:18.604Z,21.30
2022-12-27T03:50:12.586Z,21.30
2022-12-27T03:53:05.860Z,22.93
2022-12-27T03:55:55.021Z,20.80
2022-12-27T03:58:43.771Z,21.03
2022-12-27T04:01:33.401Z,20.90
2022-12-27T04:04:23.283Z,19.23
2022-12-27T04:07:14.331Z,21.00
2022-12-27T04:10:22.593Z,20.95
2022-12-27T04:13:29.182Z,20.40
2022-12-27T04:16:35.549Z,20.20
2022-12-27T04:19:41.839Z,19.73
2022-12-27T04:22:47.598Z,20.83
2022-12-27T04:25:55.530Z,19.47
2022-12-27T04:29:01.694Z,20.13
2022-12-27T04:32:07.688Z,20.30
2022-12-27T04:34:56.849Z,18.80
2022-12-27T04:37:45.743Z,20.20
2022-12-27T04:40:52.173Z,20.63
2022-12-27T04:44:00.120Z,19.50
2022-12-27T04:47:06.287Z,19.30
2022-12-27T04:50:12.500Z,20.77
2022-12-27T04:53:18.192Z,19.40
2022-12-27T04:56:09.266Z,19.17
2022-12-27T04:59:16.742Z,18.50
2022-12-27T05:02:06.342Z,20.13
2022-12-27T05:04:55.706Z,19.80
2022-12-27T05:08:02.053Z,19.40
2022-12-27T05:11:09.086Z,19.40
2022-12-27T05:14:02.144Z,19.67
2022-12-27T05:16:51.204Z,18.20
2022-12-27T05:19:40.284Z,21.73
2022-12-27T05:22:46.382Z,19.00
2022-12-27T05:25:38.708Z,20.83
2022-12-27T05:28:28.500Z,22.80
2022-12-27T05:31:18.955Z,21.57
2022-12-27T05:34:08.463Z,21.17
2022-12-27T05:36:57.959Z,20.77
2022-12-27T05:39:47.494Z,19.00
2022-12-27T05:42:36.134Z,21.20
2022-12-27T05:45:25.741Z,19.50
2022-12-27T05:48:16.315Z,18.67
2022-12-27T05:51:10.063Z,21.27
2022-12-27T05:53:58.676Z,19.43
2022-12-27T05:56:48.601Z,20.07
2022-12-27T05:59:37.558Z,19.40
2022-12-27T06:02:26.971Z,18.90
2022-12-27T06:05:18.413Z,20.73
2022-12-27T06:08:08.597Z,20.77
2022-12-27T06:11:05.052Z,19.63
2022-12-27T06:13:56.591Z,18.30
2022-12-27T06:16:45.603Z,21.13
2022-12-27T06:19:35.063Z,20.37
2022-12-27T06:22:25.802Z,18.50
2022-12-27T06:25:15.515Z,19.83
2022-12-27T06:28:05.251Z,20.53
2022-12-27T06:30:54.563Z,18.27
2022-12-27T06:33:43.809Z,19.17
2022-12-27T06:36:33.089Z,16.77
2022-12-27T06:39:24.395Z,17.67
2022-12-27T06:42:13.783Z,18.77
2022-12-27T06:45:02.673Z,19.83
2022-12-27T06:47:51.238Z,18.07
2022-12-27T06:50:41.039Z,18.77
2022-12-27T06:53:30.923Z,18.20
2022-12-27T06:56:22.999Z,18.73
2022-12-27T06:59:12.005Z,18.30
2022-12-27T07:02:01.227Z,16.80
2022-12-27T07:04:50.208Z,17.13
2022-12-27T07:07:39.372Z,17.27
2022-12-27T07:10:28.212Z,17.60
2022-12-27T07:13:18.749Z,17.73
2022-12-27T07:16:09.376Z,15.90
2022-12-27T07:19:00.290Z,18.03
2022-12-27T07:21:49.461Z,17.43
2022-12-27T07:24:39.071Z,18.60
2022-12-27T07:27:28.248Z,18.63
2022-12-27T07:30:18.830Z,19.10
2022-12-27T07:33:08.063Z,16.37
2022-12-27T07:35:59.861Z,16.23
2022-12-27T07:38:49.852Z,15.30
2022-12-27T07:41:39.647Z,17.10
2022-12-27T07:44:29.089Z,16.10
2022-12-27T07:47:19.585Z,14.70
2022-12-27T07:50:10.140Z,16.43
2022-12-27T07:52:59.795Z,16.90
2022-12-27T07:55:48.920Z,16.17
2022-12-27T07:58:39.540Z,18.40
2022-12-27T08:01:50.778Z,16.20
2022-12-27T08:04:42.485Z,17.00
2022-12-27T08:07:31.605Z,15.33
2022-12-27T08:10:20.956Z,16.90
2022-12-27T08:13:10.409Z,18.17
2022-12-27T08:15:59.589Z,18.40
2022-12-27T08:18:49.169Z,18.60
2022-12-27T08:21:39.697Z,16.30
2022-12-27T08:24:28.915Z,16.13
2022-12-27T08:27:23.707Z,17.97
2022-12-27T08:30:14.147Z,16.13
2022-12-27T08:33:04.466Z,15.27
2022-12-27T08:35:55.150Z,15.90
2022-12-27T08:38:45.856Z,16.07
2022-12-27T08:41:35.281Z,17.17
2022-12-27T08:44:24.304Z,14.83
2022-12-27T08:47:13.372Z,15.27
2022-12-27T08:50:02.325Z,15.63
2022-12-27T08:52:51.542Z,15.97
2022-12-27T08:55:42.208Z,15.13
2022-12-27T08:58:31.238Z,15.20
2022-12-27T09:01:20.438Z,16.43
2022-12-27T09:04:10.240Z,16.43
2022-12-27T09:06:58.904Z,15.97
2022-12-27T09:09:47.735Z,16.07
2022-12-27T09:12:38.115Z,16.37
2022-12-27T09:15:27.287Z,16.57
2022-12-27T09:18:16.649Z,16.33
2022-12-27T09:21:07.447Z,16.00
2022-12-27T09:23:56.492Z,14.57
2022-12-27T09:26:45.702Z,15.30
2022-12-27T09:29:36.420Z,16.80
2022-12-27T09:32:27.513Z,15.73
2022-12-27T09:35:16.427Z,17.02
2022-12-27T09:38:05.570Z,16.77
2022-12-27T09:40:56.103Z,17.42
2022-12-27T09:43:58.336Z,17.67
2022-12-27T09:46:53.883Z,16.85
2022-12-27T09:49:46.550Z,17.95
2022-12-27T09:52:41.183Z,17.55
2022-12-27T09:55:39.619Z,16.77
2022-12-27T09:58:40.826Z,17.30
2022-12-27T10:01:33.387Z,17.60
2022-12-27T10:04:24.267Z,18.95
2022-12-27T10:07:25.480Z,17.17
2022-12-27T10:10:20.514Z,17.80
2022-12-27T10:13:29.415Z,18.63
2022-12-27T10:16:27.173Z,18.92
2022-12-27T10:19:30.737Z,17.95
2022-12-27T10:22:28.876Z,19.40
2022-12-27T10:25:21.248Z,19.73
2022-12-27T10:28:16.516Z,19.48
2022-12-27T10:31:06.314Z,18.70
2022-12-27T10:33:55.404Z,18.52
2022-12-27T10:36:46.832Z,20.50
2022-12-27T10:39:38.632Z,20.50
2022-12-27T10:42:38.262Z,19.00
2022-12-27T10:45:32.489Z,19.55
2022-12-27T10:48:22.949Z,20.30
2022-12-27T10:51:13.386Z,20.00
2022-12-27T10:54:06.046Z,20.17
2022-12-27T10:56:56.065Z,18.83
2022-12-27T10:59:45.142Z,19.33
2022-12-27T11:02:34.044Z,19.40
2022-12-27T11:05:25.547Z,20.33
2022-12-27T11:08:22.651Z,18.83
2022-12-27T11:11:19.023Z,19.48
2022-12-27T11:14:13.313Z,19.40
2022-12-27T11:17:02.042Z,18.67
2022-12-27T11:19:51.073Z,19.13
2022-12-27T11:22:45.365Z,18.38
2022-12-27T11:25:36.139Z,19.70
2022-12-27T11:28:35.352Z,19.27
2022-12-27T11:31:34.483Z,20.25
2022-12-27T11:34:28.726Z,20.35
2022-12-27T11:37:20.423Z,19.85
2022-12-27T11:40:24.646Z,20.20
2022-12-27T11:43:19.462Z,20.00
2022-12-27T11:46:20.404Z,20.33
2022-12-27T11:49:18.801Z,20.63
2022-12-27T11:52:32.569Z,20.20
2022-12-27T11:55:54.388Z,21.25
2022-12-27T11:59:02.509Z,19.70
2022-12-27T12:02:26.666Z,21.45
2022-12-27T12:05:47.517Z,19.95
2022-12-27T12:09:10.523Z,21.05
2022-12-27T12:12:24.852Z,23.50
2022-12-27T12:15:50.048Z,23.38
2022-12-27T12:19:13.183Z,22.90
2022-12-27T12:22:16.138Z,23.40
2022-12-27T12:25:37.232Z,22.83
2022-12-27T12:29:00.102Z,22.42
2022-12-27T12:32:36.266Z,25.42
2022-12-27T12:35:40.914Z,24.58
2022-12-27T12:38:37.164Z,25.38
2022-12-27T12:41:49.727Z,24.77
2022-12-27T12:45:01.335Z,29.90
2022-12-27T12:48:13.957Z,27.95
2022-12-27T12:51:21.580Z,29.40
2022-12-27T12:54:25.594Z,28.63
2022-12-27T12:57:29.651Z,27.58
2022-12-27T13:00:32.446Z,27.73
2022-12-27T13:04:00.484Z,29.75
2022-12-27T13:07:04.795Z,29.02
2022-12-27T13:10:14.104Z,30.40
2022-12-27T13:13:12.308Z,29.35
2022-12-27T13:16:16.106Z,30.35
2022-12-27T13:19:19.215Z,29.45
2022-12-27T13:22:18.692Z,28.05
2022-12-27T13:25:21.208Z,27.90
2022-12-27T13:28:27.077Z,25.02
2022-12-27T13:31:29.890Z,25.45
2022-12-27T13:34:31.331Z,26.73
2022-12-27T13:37:49.045Z,26.88
2022-12-27T13:40:57.358Z,26.45
2022-12-27T13:44:13.972Z,26.27
2022-12-27T13:47:44.044Z,25.13
2022-12-27T13:50:59.806Z,26.77
2022-12-27T13:54:21.140Z,27.52
2022-12-27T13:57:21.086Z,28.05
2022-12-27T14:00:18.369Z,27.42
2022-12-27T14:03:48.623Z,28.17
2022-12-27T14:07:05.046Z,26.38
2022-12-27T14:10:12.686Z,27.77
2022-12-27T14:13:03.254Z,29.10
2022-12-27T14:16:18.049Z,30.42
2022-12-27T14:19:26.251Z,29.38
2022-12-27T14:22:53.980Z,30.40
2022-12-27T14:26:37.203Z,30.63
2022-12-27T14:30:08.761Z,31.48
2022-12-27T14:33:49.418Z,29.85
2022-12-27T14:37:08.340Z,28.30
2022-12-27T14:40:34.867Z,28.20
2022-12-27T14:44:06.348Z,28.70
2022-12-27T14:47:30.591Z,28.63
2022-12-27T14:50:45.112Z,31.10
2022-12-27T14:54:12.581Z,28.13
2022-12-27T14:57:10.184Z,29.13
2022-12-27T15:00:05.784Z,30.23
2022-12-27T15:03:16.573Z,31.05
2022-12-27T15:06:14.238Z,30.42
2022-12-27T15:09:11.395Z,29.08
2022-12-27T15:12:10.320Z,30.05
2022-12-27T15:15:22.894Z,29.40
2022-12-27T15:18:29.837Z,28.70
2022-12-27T15:21:29.859Z,29.83
2022-12-27T15:24:34.372Z,30.48
2022-12-27T15:27:30.356Z,29.65
2022-12-27T15:30:25.336Z,30.07
2022-12-27T15:33:24.541Z,29.27
2022-12-27T15:36:17.203Z,31.30
2022-12-27T15:39:08.585Z,29.13
2022-12-27T15:42:05.133Z,30.85
2022-12-27T15:45:03.321Z,31.42
2022-12-27T15:48:22.748Z,31.52
2022-12-27T15:51:24.122Z,29.50
2022-12-27T15:54:57.265Z,31.38
2022-12-27T15:58:15.191Z,31.00
2022-12-27T16:01:29.606Z,32.05
2022-12-27T16:04:48.101Z,33.53
2022-12-27T16:07:45.510Z,32.47
2022-12-27T16:10:52.216Z,29.00
2022-12-27T16:13:43.681Z,30.90
2022-12-27T16:16:57.784Z,30.45
2022-12-27T16:20:15.923Z,31.58
2022-12-27T16:23:07.998Z,31.07
2022-12-27T16:26:03.384Z,30.38
2022-12-27T16:28:56.506Z,29.50
2022-12-27T16:31:49.401Z,31.27
2022-12-27T16:34:46.237Z,29.88
2022-12-27T16:37:45.216Z,30.67
2022-12-27T16:40:46.595Z,30.70
2022-12-27T16:43:52.907Z,30.63
2022-12-27T16:47:02.310Z,30.53
2022-12-27T16:50:16.555Z,31.05
2022-12-27T16:53:19.163Z,30.85
2022-12-27T16:56:22.306Z,31.67
2022-12-27T16:59:41.002Z,32.13
2022-12-27T17:02:40.291Z,31.80
2022-12-27T17:05:37.258Z,32.70
2022-12-27T17:08:26.251Z,31.50
2022-12-27T17:11:28.671Z,31.77
2022-12-27T17:14:21.154Z,32.23
2022-12-27T17:17:16.651Z,31.52
2022-12-27T17:20:14.244Z,31.80
2022-12-27T17:23:06.164Z,32.45
2022-12-27T17:26:11.338Z,30.98
2022-12-27T17:29:10.281Z,31.25
2022-12-27T17:32:06.333Z,30.60
2022-12-27T17:35:05.579Z,33.43
2022-12-27T17:38:09.560Z,31.67
2022-12-27T17:41:15.166Z,33.33
2022-12-27T17:44:33.397Z,33.30
2022-12-27T17:47:34.645Z,31.65
2022-12-27T17:50:26.754Z,34.27
2022-12-27T17:53:39.945Z,33.70
2022-12-27T17:56:57.529Z,32.80
2022-12-27T17:59:51.277Z,32.22
2022-12-27T18:02:41.478Z,33.33
2022-12-27T18:05:33.237Z,31.03
2022-12-27T18:08:28.637Z,32.40
2022-12-27T18:11:22.233Z,33.88
2022-12-27T18:14:17.802Z,32.35
2022-12-27T18:17:08.091Z,32.88
2022-12-27T18:19:57.367Z,32.83
2022-12-27T18:22:46.896Z,34.07
2022-12-27T18:25:38.002Z,31.80
2022-12-27T18:28:33.576Z,35.03
2022-12-27T18:31:32.085Z,32.27
2022-12-27T18:34:26.276Z,33.53
2022-12-27T18:37:20.960Z,34.10
2022-12-27T18:40:20.215Z,34.30
2022-12-27T18:43:15.949Z,34.78
2022-12-27T18:46:06.386Z,33.40
2022-12-27T18:48:56.012Z,32.80
2022-12-27T18:51:47.195Z,32.45
2022-12-27T18:54:37.615Z,34.27
2022-12-27T18:57:32.942Z,33.72
2022-12-27T19:00:25.488Z,37.07
2022-12-27T19:03:16.455Z,34.77
2022-12-27T19:06:09.213Z,34.10
2022-12-27T19:08:59.902Z,36.58
2022-12-27T19:11:53.894Z,33.37
2022-12-27T19:14:45.862Z,37.50
2022-12-27T19:17:39.398Z,41.63
2022-12-27T19:20:31.783Z,48.63
2022-12-27T19:23:32.093Z,41.63
2022-12-27T19:26:29.896Z,36.33
2022-12-27T19:29:21.485Z,34.47
2022-12-27T19:32:11.544Z,34.53
2022-12-27T19:35:03.578Z,32.22
2022-12-27T19:37:52.539Z,34.70
2022-12-27T19:40:41.967Z,32.60
2022-12-27T19:43:37.547Z,34.40
2022-12-27T19:46:30.763Z,33.28
2022-12-27T19:49:41.540Z,33.03
2022-12-27T19:52:29.641Z,30.30
2022-12-27T19:55:23.843Z,32.47
2022-12-27T19:58:19.735Z,34.40
2022-12-27T20:01:10.411Z,34.10
2022-12-27T20:04:00.040Z,32.53
2022-12-27T20:06:50.887Z,33.23
2022-12-27T20:09:40.320Z,31.13
2022-12-27T20:12:30.639Z,31.70
2022-12-27T20:15:19.319Z,31.10
2022-12-27T20:18:11.155Z,32.17
2022-12-27T20:21:00.395Z,31.40
2022-12-27T20:23:50.044Z,32.47
2022-12-27T20:26:40.285Z,29.67
2022-12-27T20:29:30.557Z,30.07
2022-12-27T20:32:20.222Z,31.23
2022-12-27T20:35:11.831Z,33.00
2022-12-27T20:38:00.663Z,32.10
2022-12-27T20:40:51.010Z,29.90
2022-12-27T20:43:39.798Z,29.33
2022-12-27T20:46:29.660Z,33.00
2022-12-27T20:49:18.631Z,30.83
2022-12-27T20:52:09.568Z,32.53
2022-12-27T20:54:58.144Z,31.10
2022-12-27T20:57:48.222Z,30.87
2022-12-27T21:00:41.136Z,32.43
2022-12-27T21:03:30.626Z,31.17
2022-12-27T21:06:22.036Z,31.03
2022-12-27T21:09:13.102Z,31.33
2022-12-27T21:12:01.932Z,31.87
2022-12-27T21:14:51.582Z,33.73
2022-12-27T21:17:40.518Z,33.67
2022-12-27T21:20:29.337Z,30.13
2022-12-27T21:23:18.869Z,32.87
2022-12-27T21:26:13.228Z,33.93
2022-12-27T21:29:05.066Z,34.40
2022-12-27T21:31:54.171Z,32.17
2022-12-27T21:34:44.251Z,33.07
2022-12-27T21:37:33.342Z,31.80
2022-12-27T21:40:22.743Z,34.20
2022-12-27T21:43:13.074Z,32.53
2022-12-27T21:46:06.881Z,32.60
2022-12-27T21:48:57.528Z,33.30
2022-12-27T21:51:46.534Z,31.63
2022-12-27T21:54:35.622Z,31.90
2022-12-27T21:57:25.498Z,31.50
2022-12-27T22:00:17.912Z,31.87
2022-12-27T22:03:07.452Z,30.83
2022-12-27T22:05:56.404Z,30.83
2022-12-27T22:08:46.610Z,31.50
2022-12-27T22:11:36.915Z,32.05
2022-12-27T22:14:28.408Z,32.23
2022-12-27T22:17:19.848Z,30.63
2022-12-27T22:20:10.171Z,31.37
2022-12-27T22:22:59.121Z,30.05
2022-12-27T22:25:48.839Z,28.33
2022-12-27T22:28:37.982Z,29.97
2022-12-27T22:31:30.538Z,31.47
2022-12-27T22:34:21.677Z,30.60
2022-12-27T22:37:11.053Z,30.48
2022-12-27T22:40:00.443Z,30.87
2022-12-27T22:42:50.423Z,28.77
2022-12-27T22:45:42.855Z,29.57
2022-12-27T22:48:32.426Z,28.27
2022-12-27T22:51:24.716Z,29.27
2022-12-27T22:54:14.337Z,29.52
2022-12-27T22:57:03.310Z,29.65
2022-12-27T22:59:52.360Z,30.53
2022-12-27T23:02:41.534Z,30.90
2022-12-27T23:05:30.404Z,31.57
2022-12-27T23:08:20.572Z,30.07
2022-12-27T23:11:13.190Z,31.00
2022-12-27T23:14:03.872Z,30.30
2022-12-27T23:16:52.719Z,32.25
2022-12-27T23:19:42.047Z,33.70
2022-12-27T23:22:30.982Z,39.30
2022-12-27T23:25:21.891Z,35.53
2022-12-27T23:28:11.162Z,38.80
2022-12-27T23:31:00.751Z,38.53
2022-12-27T23:33:49.780Z,39.07
2022-12-27T23:36:39.250Z,38.17
2022-12-27T23:39:28.569Z,41.47
2022-12-27T23:42:19.338Z,40.03
2022-12-27T23:45:09.676Z,39.00
2022-12-27T23:47:58.851Z,40.70
2022-12-27T23:50:49.121Z,37.37
2022-12-27T23:53:38.715Z,40.83
2022-12-27T23:56:29.424Z,40.57
2022-12-27T23:59:20.138Z,44.23
